sensor_id;sensor_type;location;lat;lon;timestamp;pressure;altitude;pressure_sealevel;temperature;humidity
34124;BME280;13153;52.316;21.166;2023-11-19T00:01:40;101050.63;;;5.40;60.42
34124;BME280;13153;52.316;21.166;2023-11-19T00:04:06;101054.47;;;5.46;60.35
34124;BME280;13153;52.316;21.166;2023-11-19T00:06:32;101052.03;;;5.49;59.98
34124;BME280;13153;52.316;21.166;2023-11-19T00:08:57;101045.03;;;5.48;60.07
34124;BME280;13153;52.316;21.166;2023-11-19T00:11:23;101053.41;;;5.43;59.74
34124;BME280;13153;52.316;21.166;2023-11-19T00:13:49;101051.69;;;5.43;59.77
34124;BME280;13153;52.316;21.166;2023-11-19T00:16:14;101051.97;;;5.48;60.22
34124;BME280;13153;52.316;21.166;2023-11-19T00:18:41;101048.06;;;5.56;60.27
34124;BME280;13153;52.316;21.166;2023-11-19T00:21:07;101046.63;;;5.61;60.27
34124;BME280;13153;52.316;21.166;2023-11-19T00:23:36;101041.41;;;5.61;59.98
34124;BME280;13153;52.316;21.166;2023-11-19T00:26:03;101035.94;;;5.56;59.96
34124;BME280;13153;52.316;21.166;2023-11-19T00:28:32;101029.00;;;5.57;60.09
34124;BME280;13153;52.316;21.166;2023-11-19T00:30:59;101024.84;;;5.60;60.27
34124;BME280;13153;52.316;21.166;2023-11-19T00:33:24;101026.81;;;5.64;59.94
34124;BME280;13153;52.316;21.166;2023-11-19T00:35:50;101033.13;;;5.68;59.71
34124;BME280;13153;52.316;21.166;2023-11-19T00:38:16;101031.50;;;5.70;59.61
34124;BME280;13153;52.316;21.166;2023-11-19T00:40:41;101033.47;;;5.74;60.00
34124;BME280;13153;52.316;21.166;2023-11-19T00:43:07;101024.94;;;5.78;59.74
34124;BME280;13153;52.316;21.166;2023-11-19T00:45:33;101020.41;;;5.74;59.47
34124;BME280;13153;52.316;21.166;2023-11-19T00:47:59;101009.16;;;5.75;59.34
34124;BME280;13153;52.316;21.166;2023-11-19T00:50:25;101005.63;;;5.75;58.92
34124;BME280;13153;52.316;21.166;2023-11-19T00:52:51;101007.44;;;5.76;58.99
34124;BME280;13153;52.316;21.166;2023-11-19T00:55:17;100997.81;;;5.75;58.86
34124;BME280;13153;52.316;21.166;2023-11-19T00:57:43;100993.22;;;5.71;59.14
34124;BME280;13153;52.316;21.166;2023-11-19T01:00:09;100991.34;;;5.68;59.47
34124;BME280;13153;52.316;21.166;2023-11-19T01:02:47;101002.78;;;5.70;59.22
34124;BME280;13153;52.316;21.166;2023-11-19T01:05:15;100992.50;;;5.73;59.35
34124;BME280;13153;52.316;21.166;2023-11-19T01:07:41;100992.50;;;5.73;59.39
34124;BME280;13153;52.316;21.166;2023-11-19T01:10:07;100994.22;;;5.73;59.45
34124;BME280;13153;52.316;21.166;2023-11-19T01:12:34;100985.72;;;5.77;59.27
34124;BME280;13153;52.316;21.166;2023-11-19T01:14:59;100969.22;;;5.78;59.39
34124;BME280;13153;52.316;21.166;2023-11-19T01:17:26;100964.97;;;5.80;59.85
34124;BME280;13153;52.316;21.166;2023-11-19T01:19:52;100961.72;;;5.84;59.44
34124;BME280;13153;52.316;21.166;2023-11-19T01:22:17;100960.09;;;5.86;59.61
34124;BME280;13153;52.316;21.166;2023-11-19T01:24:44;100955.59;;;5.83;59.47
34124;BME280;13153;52.316;21.166;2023-11-19T01:27:10;100963.44;;;5.83;59.03
34124;BME280;13153;52.316;21.166;2023-11-19T01:29:35;100957.22;;;5.81;59.23
34124;BME280;13153;52.316;21.166;2023-11-19T01:32:04;100952.91;;;5.82;59.15
34124;BME280;13153;52.316;21.166;2023-11-19T01:34:29;100952.00;;;5.81;59.20
34124;BME280;13153;52.316;21.166;2023-11-19T01:36:55;100956.50;;;5.84;59.49
34124;BME280;13153;52.316;21.166;2023-11-19T01:39:21;100946.13;;;5.85;59.16
34124;BME280;13153;52.316;21.166;2023-11-19T01:41:47;100947.84;;;5.85;59.01
34124;BME280;13153;52.316;21.166;2023-11-19T01:44:13;100944.44;;;5.86;58.91
34124;BME280;13153;52.316;21.166;2023-11-19T01:46:42;100946.31;;;5.88;58.65
34124;BME280;13153;52.316;21.166;2023-11-19T01:49:09;100941.09;;;5.88;58.65
34124;BME280;13153;52.316;21.166;2023-11-19T01:51:38;100936.06;;;5.91;59.27
34124;BME280;13153;52.316;21.166;2023-11-19T01:54:06;100935.25;;;5.92;59.12
34124;BME280;13153;52.316;21.166;2023-11-19T01:56:34;100917.88;;;5.93;58.87
34124;BME280;13153;52.316;21.166;2023-11-19T01:59:01;100918.59;;;5.90;58.69
34124;BME280;13153;52.316;21.166;2023-11-19T02:01:27;100910.75;;;5.90;59.03
34124;BME280;13153;52.316;21.166;2023-11-19T02:03:55;100913.19;;;5.87;58.83
34124;BME280;13153;52.316;21.166;2023-11-19T02:06:21;100912.34;;;5.88;58.81
34124;BME280;13153;52.316;21.166;2023-11-19T02:08:47;100901.00;;;5.88;58.79
34124;BME280;13153;52.316;21.166;2023-11-19T02:11:13;100901.91;;;5.88;59.02
34124;BME280;13153;52.316;21.166;2023-11-19T02:13:39;100893.19;;;5.88;59.24
34124;BME280;13153;52.316;21.166;2023-11-19T02:16:07;100900.13;;;5.87;59.05
34124;BME280;13153;52.316;21.166;2023-11-19T02:18:35;100890.41;;;5.85;59.23
34124;BME280;13153;52.316;21.166;2023-11-19T02:21:00;100900.03;;;5.86;59.10
34124;BME280;13153;52.316;21.166;2023-11-19T02:23:28;100899.13;;;5.85;58.94
34124;BME280;13153;52.316;21.166;2023-11-19T02:26:15;100895.63;;;5.85;59.29
34124;BME280;13153;52.316;21.166;2023-11-19T02:28:44;100889.50;;;5.84;58.84
34124;BME280;13153;52.316;21.166;2023-11-19T02:31:10;100879.88;;;5.83;58.75
34124;BME280;13153;52.316;21.166;2023-11-19T02:33:38;100878.16;;;5.84;58.81
34124;BME280;13153;52.316;21.166;2023-11-19T02:36:08;100882.50;;;5.83;58.89
34124;BME280;13153;52.316;21.166;2023-11-19T02:38:35;100879.06;;;5.84;58.76
34124;BME280;13153;52.316;21.166;2023-11-19T02:41:06;100877.25;;;5.83;59.15
34124;BME280;13153;52.316;21.166;2023-11-19T02:43:36;100872.03;;;5.83;59.14
34124;BME280;13153;52.316;21.166;2023-11-19T02:46:04;100859.97;;;5.85;59.15
34124;BME280;13153;52.316;21.166;2023-11-19T02:48:36;100862.56;;;5.85;59.27
34124;BME280;13153;52.316;21.166;2023-11-19T02:51:03;100858.34;;;5.87;59.16
34124;BME280;13153;52.316;21.166;2023-11-19T02:53:30;100857.72;;;5.91;58.87
34124;BME280;13153;52.316;21.166;2023-11-19T02:55:55;100851.69;;;5.92;59.35
34124;BME280;13153;52.316;21.166;2023-11-19T02:58:28;100841.22;;;5.92;59.18
34124;BME280;13153;52.316;21.166;2023-11-19T03:00:55;100841.16;;;5.91;59.13
34124;BME280;13153;52.316;21.166;2023-11-19T03:03:26;100830.63;;;5.89;59.17
34124;BME280;13153;52.316;21.166;2023-11-19T03:06:04;100825.28;;;5.88;58.83
34124;BME280;13153;52.316;21.166;2023-11-19T03:08:30;100828.63;;;5.85;58.94
34124;BME280;13153;52.316;21.166;2023-11-19T03:10:56;100820.88;;;5.87;58.88
34124;BME280;13153;52.316;21.166;2023-11-19T03:13:22;100816.56;;;5.87;59.14
34124;BME280;13153;52.316;21.166;2023-11-19T03:15:47;100819.16;;;5.87;59.45
34124;BME280;13153;52.316;21.166;2023-11-19T03:18:13;100818.34;;;5.88;59.01
34124;BME280;13153;52.316;21.166;2023-11-19T03:20:39;100814.13;;;5.90;59.19
34124;BME280;13153;52.316;21.166;2023-11-19T03:23:05;100801.06;;;5.90;59.32
34124;BME280;13153;52.316;21.166;2023-11-19T03:25:32;100809.88;;;5.92;59.47
34124;BME280;13153;52.316;21.166;2023-11-19T03:28:03;100800.34;;;5.93;59.79
34124;BME280;13153;52.316;21.166;2023-11-19T03:30:30;100802.94;;;5.93;59.19
34124;BME280;13153;52.316;21.166;2023-11-19T03:32:56;100794.22;;;5.92;59.59
34124;BME280;13153;52.316;21.166;2023-11-19T03:35:23;100775.84;;;5.91;59.70
34124;BME280;13153;52.316;21.166;2023-11-19T03:37:50;100775.94;;;5.92;59.48
34124;BME280;13153;52.316;21.166;2023-11-19T03:40:17;100778.47;;;5.91;59.19
34124;BME280;13153;52.316;21.166;2023-11-19T03:42:45;100778.94;;;5.84;59.23
34124;BME280;13153;52.316;21.166;2023-11-19T03:45:11;100777.75;;;5.77;59.69
34124;BME280;13153;52.316;21.166;2023-11-19T03:47:37;100777.69;;;5.76;59.55
34124;BME280;13153;52.316;21.166;2023-11-19T03:50:05;100780.22;;;5.74;59.89
34124;BME280;13153;52.316;21.166;2023-11-19T03:52:31;100771.47;;;5.74;59.76
34124;BME280;13153;52.316;21.166;2023-11-19T03:54:57;100774.97;;;5.74;59.81
34124;BME280;13153;52.316;21.166;2023-11-19T03:57:23;100770.66;;;5.75;59.76
34124;BME280;13153;52.316;21.166;2023-11-19T03:59:49;100774.50;;;5.65;60.12
34124;BME280;13153;52.316;21.166;2023-11-19T04:02:16;100769.38;;;5.67;60.02
34124;BME280;13153;52.316;21.166;2023-11-19T04:04:42;100761.78;;;5.71;60.02
34124;BME280;13153;52.316;21.166;2023-11-19T04:07:08;100748.81;;;5.73;59.85
34124;BME280;13153;52.316;21.166;2023-11-19T04:09:34;100753.03;;;5.71;59.87
34124;BME280;13153;52.316;21.166;2023-11-19T04:12:00;100744.31;;;5.70;59.90
34124;BME280;13153;52.316;21.166;2023-11-19T04:14:26;100743.50;;;5.71;60.03
34124;BME280;13153;52.316;21.166;2023-11-19T04:16:53;100728.72;;;5.72;59.91
34124;BME280;13153;52.316;21.166;2023-11-19T04:19:19;100732.41;;;5.75;60.17
34124;BME280;13153;52.316;21.166;2023-11-19T04:21:45;100734.19;;;5.76;60.06
34124;BME280;13153;52.316;21.166;2023-11-19T04:24:12;100717.63;;;5.76;59.93
34124;BME280;13153;52.316;21.166;2023-11-19T04:26:45;100721.06;;;5.75;60.20
34124;BME280;13153;52.316;21.166;2023-11-19T04:29:16;100715.84;;;5.75;59.83
34124;BME280;13153;52.316;21.166;2023-11-19T04:31:43;100714.03;;;5.74;60.14
34124;BME280;13153;52.316;21.166;2023-11-19T04:34:12;100705.41;;;5.75;60.30
34124;BME280;13153;52.316;21.166;2023-11-19T04:36:38;100699.13;;;5.71;60.27
34124;BME280;13153;52.316;21.166;2023-11-19T04:39:05;100699.28;;;5.74;60.15
34124;BME280;13153;52.316;21.166;2023-11-19T04:41:36;100690.53;;;5.74;60.35
34124;BME280;13153;52.316;21.166;2023-11-19T04:44:02;100695.03;;;5.76;60.49
34124;BME280;13153;52.316;21.166;2023-11-19T04:46:28;100687.94;;;5.74;60.32
34124;BME280;13153;52.316;21.166;2023-11-19T04:48:53;100677.25;;;5.69;60.50
34124;BME280;13153;52.316;21.166;2023-11-19T04:51:19;100669.50;;;5.71;60.63
34124;BME280;13153;52.316;21.166;2023-11-19T04:53:45;100664.44;;;5.74;60.43
34124;BME280;13153;52.316;21.166;2023-11-19T04:56:11;100659.22;;;5.74;60.35
34124;BME280;13153;52.316;21.166;2023-11-19T04:58:39;100658.41;;;5.75;60.33
34124;BME280;13153;52.316;21.166;2023-11-19T05:01:04;100662.88;;;5.77;60.40
34124;BME280;13153;52.316;21.166;2023-11-19T05:03:31;100668.22;;;5.80;60.68
34124;BME280;13153;52.316;21.166;2023-11-19T05:05:57;100667.31;;;5.80;60.37
34124;BME280;13153;52.316;21.166;2023-11-19T05:08:23;100660.38;;;5.80;60.16
34124;BME280;13153;52.316;21.166;2023-11-19T05:10:49;100652.72;;;5.83;60.63
34124;BME280;13153;52.316;21.166;2023-11-19T05:13:15;100658.91;;;5.85;60.28
34124;BME280;13153;52.316;21.166;2023-11-19T05:15:41;100654.50;;;5.84;60.34
34124;BME280;13153;52.316;21.166;2023-11-19T05:18:06;100648.47;;;5.85;60.48
34124;BME280;13153;52.316;21.166;2023-11-19T05:20:32;100640.69;;;5.87;60.67
34124;BME280;13153;52.316;21.166;2023-11-19T05:22:59;100640.78;;;5.88;60.79
34124;BME280;13153;52.316;21.166;2023-11-19T05:25:26;100635.56;;;5.88;60.70
34124;BME280;13153;52.316;21.166;2023-11-19T05:27:53;100629.44;;;5.88;60.56
34124;BME280;13153;52.316;21.166;2023-11-19T05:30:19;100627.66;;;5.87;60.70
34124;BME280;13153;52.316;21.166;2023-11-19T05:32:44;100631.06;;;5.86;60.44
34124;BME280;13153;52.316;21.166;2023-11-19T05:35:11;100629.38;;;5.86;60.64
34124;BME280;13153;52.316;21.166;2023-11-19T05:37:37;100619.81;;;5.87;60.98
34124;BME280;13153;52.316;21.166;2023-11-19T05:40:05;100616.38;;;5.88;60.54
34124;BME280;13153;52.316;21.166;2023-11-19T05:42:37;100618.09;;;5.87;60.69
34124;BME280;13153;52.316;21.166;2023-11-19T05:45:03;100620.81;;;5.89;60.42
34124;BME280;13153;52.316;21.166;2023-11-19T05:47:29;100622.59;;;5.90;60.69
34124;BME280;13153;52.316;21.166;2023-11-19T05:49:55;100628.72;;;5.90;60.94
34124;BME280;13153;52.316;21.166;2023-11-19T05:52:20;100623.50;;;5.90;60.92
34124;BME280;13153;52.316;21.166;2023-11-19T05:54:48;100619.09;;;5.89;61.14
34124;BME280;13153;52.316;21.166;2023-11-19T05:57:17;100622.59;;;5.90;60.77
34124;BME280;13153;52.316;21.166;2023-11-19T05:59:48;100613.06;;;5.90;60.92
34124;BME280;13153;52.316;21.166;2023-11-19T06:02:14;100614.84;;;5.91;60.79
34124;BME280;13153;52.316;21.166;2023-11-19T06:04:39;100623.50;;;5.90;61.07
34124;BME280;13153;52.316;21.166;2023-11-19T06:07:05;100627.91;;;5.91;61.32
34124;BME280;13153;52.316;21.166;2023-11-19T06:09:31;100617.38;;;5.90;60.93
34124;BME280;13153;52.316;21.166;2023-11-19T06:11:59;100615.66;;;5.90;60.95
34124;BME280;13153;52.316;21.166;2023-11-19T06:14:27;100613.06;;;5.90;61.26
34124;BME280;13153;52.316;21.166;2023-11-19T06:16:53;100610.44;;;5.90;61.07
34124;BME280;13153;52.316;21.166;2023-11-19T06:19:19;100609.56;;;5.90;61.09
34124;BME280;13153;52.316;21.166;2023-11-19T06:21:44;100609.44;;;5.88;61.30
34124;BME280;13153;52.316;21.166;2023-11-19T06:24:10;100605.28;;;5.92;61.16
34124;BME280;13153;52.316;21.166;2023-11-19T06:26:36;100606.19;;;5.92;61.15
34124;BME280;13153;52.316;21.166;2023-11-19T06:29:02;100595.75;;;5.92;60.89
34124;BME280;13153;52.316;21.166;2023-11-19T06:31:27;100595.91;;;5.95;60.86
34124;BME280;13153;52.316;21.166;2023-11-19T06:33:53;100597.69;;;5.96;61.02
34124;BME280;13153;52.316;21.166;2023-11-19T06:36:19;100598.50;;;5.95;61.08
34124;BME280;13153;52.316;21.166;2023-11-19T06:38:44;100599.47;;;5.97;60.43
34124;BME280;13153;52.316;21.166;2023-11-19T06:41:10;100592.38;;;5.95;60.71
34124;BME280;13153;52.316;21.166;2023-11-19T06:43:37;100589.84;;;5.96;61.10
34124;BME280;13153;52.316;21.166;2023-11-19T06:46:03;100585.66;;;6.00;60.79
34124;BME280;13153;52.316;21.166;2023-11-19T06:48:34;100583.22;;;6.03;60.47
34124;BME280;13153;52.316;21.166;2023-11-19T06:51:00;100571.88;;;6.03;60.79
34124;BME280;13153;52.316;21.166;2023-11-19T06:53:26;100571.72;;;6.00;60.76
34124;BME280;13153;52.316;21.166;2023-11-19T06:55:54;100571.66;;;5.98;60.89
34124;BME280;13153;52.316;21.166;2023-11-19T06:58:20;100562.91;;;5.97;60.70
34124;BME280;13153;52.316;21.166;2023-11-19T07:00:45;100553.44;;;6.00;60.36
34124;BME280;13153;52.316;21.166;2023-11-19T07:03:12;100550.16;;;6.04;60.46
34124;BME280;13153;52.316;21.166;2023-11-19T07:05:38;100556.19;;;6.03;60.83
34124;BME280;13153;52.316;21.166;2023-11-19T07:08:06;100544.09;;;6.05;60.38
34124;BME280;13153;52.316;21.166;2023-11-19T07:10:33;100548.22;;;6.00;60.55
34124;BME280;13153;52.316;21.166;2023-11-19T07:12:59;100541.56;;;6.06;60.48
34124;BME280;13153;52.316;21.166;2023-11-19T07:15:25;100537.38;;;6.10;60.26
34124;BME280;13153;52.316;21.166;2023-11-19T07:17:51;100524.09;;;6.05;60.10
34124;BME280;13153;52.316;21.166;2023-11-19T07:20:20;100520.75;;;6.08;59.96
34124;BME280;13153;52.316;21.166;2023-11-19T07:22:45;100523.50;;;6.11;59.89
34124;BME280;13153;52.316;21.166;2023-11-19T07:25:14;100522.47;;;6.07;60.00
34124;BME280;13153;52.316;21.166;2023-11-19T07:27:40;100513.88;;;6.10;60.58
34124;BME280;13153;52.316;21.166;2023-11-19T07:30:07;100525.88;;;6.06;60.16
34124;BME280;13153;52.316;21.166;2023-11-19T07:32:33;100524.25;;;6.08;60.04
34124;BME280;13153;52.316;21.166;2023-11-19T07:34:59;100513.66;;;6.05;60.08
34124;BME280;13153;52.316;21.166;2023-11-19T07:37:25;100512.47;;;5.99;59.79
34124;BME280;13153;52.316;21.166;2023-11-19T07:39:51;100512.47;;;5.99;60.19
34124;BME280;13153;52.316;21.166;2023-11-19T07:42:35;100510.69;;;5.97;60.06
34124;BME280;13153;52.316;21.166;2023-11-19T07:45:02;100508.75;;;5.93;59.86
34124;BME280;13153;52.316;21.166;2023-11-19T07:47:27;100510.75;;;5.99;59.77
34124;BME280;13153;52.316;21.166;2023-11-19T07:49:54;100501.75;;;5.92;60.08
34124;BME280;13153;52.316;21.166;2023-11-19T07:52:19;100502.56;;;5.91;60.16
34124;BME280;13153;52.316;21.166;2023-11-19T07:54:45;100502.91;;;5.81;59.90
34124;BME280;13153;52.316;21.166;2023-11-19T07:57:11;100490.69;;;5.80;60.23
34124;BME280;13153;52.316;21.166;2023-11-19T07:59:37;100500.31;;;5.81;59.96
34124;BME280;13153;52.316;21.166;2023-11-19T08:02:02;100495.56;;;5.73;60.39
34124;BME280;13153;52.316;21.166;2023-11-19T08:04:30;100485.34;;;5.77;60.61
34124;BME280;13153;52.316;21.166;2023-11-19T08:06:56;100476.88;;;5.83;60.48
34124;BME280;13153;52.316;21.166;2023-11-19T08:09:22;100482.50;;;5.90;59.89
34124;BME280;13153;52.316;21.166;2023-11-19T08:11:48;100468.00;;;5.97;59.84
34124;BME280;13153;52.316;21.166;2023-11-19T08:14:15;100468.50;;;6.08;59.33
34124;BME280;13153;52.316;21.166;2023-11-19T08:16:41;100462.59;;;6.12;59.12
34124;BME280;13153;52.316;21.166;2023-11-19T08:19:06;100462.66;;;6.13;59.36
34124;BME280;13153;52.316;21.166;2023-11-19T08:21:34;100452.50;;;6.19;59.01
34124;BME280;13153;52.316;21.166;2023-11-19T08:23:59;100446.16;;;6.34;58.53
34124;BME280;13153;52.316;21.166;2023-11-19T08:26:25;100456.31;;;6.47;58.80
34124;BME280;13153;52.316;21.166;2023-11-19T08:28:51;100454.91;;;6.55;58.38
34124;BME280;13153;52.316;21.166;2023-11-19T08:31:17;100455.88;;;6.57;57.97
34124;BME280;13153;52.316;21.166;2023-11-19T08:33:43;100454.28;;;6.60;57.83
34124;BME280;13153;52.316;21.166;2023-11-19T08:36:15;100450.03;;;6.62;58.12
34124;BME280;13153;52.316;21.166;2023-11-19T08:38:40;100444.72;;;6.61;57.81
34124;BME280;13153;52.316;21.166;2023-11-19T08:41:07;100442.13;;;6.61;57.64
34124;BME280;13153;52.316;21.166;2023-11-19T08:43:33;100435.16;;;6.61;58.05
34124;BME280;13153;52.316;21.166;2023-11-19T08:45:58;100438.75;;;6.63;58.20
34124;BME280;13153;52.316;21.166;2023-11-19T08:48:24;100430.84;;;6.62;57.62
34124;BME280;13153;52.316;21.166;2023-11-19T08:50:51;100434.28;;;6.61;58.00
34124;BME280;13153;52.316;21.166;2023-11-19T08:53:17;100439.84;;;6.69;58.11
34124;BME280;13153;52.316;21.166;2023-11-19T08:55:42;100432.38;;;6.78;58.15
34124;BME280;13153;52.316;21.166;2023-11-19T08:58:08;100424.59;;;6.79;57.73
34124;BME280;13153;52.316;21.166;2023-11-19T09:00:34;100416.69;;;6.78;57.55
34124;BME280;13153;52.316;21.166;2023-11-19T09:03:00;100418.72;;;6.85;57.32
34124;BME280;13153;52.316;21.166;2023-11-19T09:05:26;100419.00;;;6.91;57.49
34124;BME280;13153;52.316;21.166;2023-11-19T09:07:51;100410.34;;;6.93;57.20
34124;BME280;13153;52.316;21.166;2023-11-19T09:10:18;100399.78;;;6.90;57.01
34124;BME280;13153;52.316;21.166;2023-11-19T09:12:43;100391.13;;;6.91;57.38
34124;BME280;13153;52.316;21.166;2023-11-19T09:15:09;100404.00;;;6.87;56.74
34124;BME280;13153;52.316;21.166;2023-11-19T09:17:38;100394.13;;;6.80;57.68
34124;BME280;13153;52.316;21.166;2023-11-19T09:20:05;100392.91;;;6.72;57.44
34124;BME280;13153;52.316;21.166;2023-11-19T09:22:31;100392.00;;;6.71;57.71
34124;BME280;13153;52.316;21.166;2023-11-19T09:24:56;100392.06;;;6.73;57.93
34124;BME280;13153;52.316;21.166;2023-11-19T09:27:25;100386.13;;;6.77;57.59
34124;BME280;13153;52.316;21.166;2023-11-19T09:29:51;100389.72;;;6.79;57.81
34124;BME280;13153;52.316;21.166;2023-11-19T09:32:23;100388.25;;;6.85;57.69
34124;BME280;13153;52.316;21.166;2023-11-19T09:34:49;100376.81;;;6.83;57.76
34124;BME280;13153;52.316;21.166;2023-11-19T09:37:15;100370.06;;;6.68;57.88
34124;BME280;13153;52.316;21.166;2023-11-19T09:39:41;100357.50;;;6.80;57.64
34124;BME280;13153;52.316;21.166;2023-11-19T09:42:10;100357.63;;;6.83;57.64
34124;BME280;13153;52.316;21.166;2023-11-19T09:44:38;100360.25;;;6.83;57.51
34124;BME280;13153;52.316;21.166;2023-11-19T09:47:06;100352.22;;;6.78;58.03
34124;BME280;13153;52.316;21.166;2023-11-19T09:49:35;100355.03;;;6.62;58.07
34124;BME280;13153;52.316;21.166;2023-11-19T09:52:01;100340.72;;;6.54;57.96
34124;BME280;13153;52.316;21.166;2023-11-19T09:54:28;100338.88;;;6.51;58.25
34124;BME280;13153;52.316;21.166;2023-11-19T09:56:57;100332.38;;;6.42;58.74
34124;BME280;13153;52.316;21.166;2023-11-19T09:59:30;100333.41;;;6.45;58.79
34124;BME280;13153;52.316;21.166;2023-11-19T10:01:57;100339.91;;;6.55;58.63
34124;BME280;13153;52.316;21.166;2023-11-19T10:04:23;100323.72;;;6.63;59.09
34124;BME280;13153;52.316;21.166;2023-11-19T10:06:51;100325.06;;;6.75;59.07
34124;BME280;13153;52.316;21.166;2023-11-19T10:09:17;100320.00;;;6.79;58.52
34124;BME280;13153;52.316;21.166;2023-11-19T10:11:44;100314.59;;;6.75;58.73
34124;BME280;13153;52.316;21.166;2023-11-19T10:14:10;100312.16;;;6.79;58.57
34124;BME280;13153;52.316;21.166;2023-11-19T10:16:36;100308.53;;;6.76;58.45
34124;BME280;13153;52.316;21.166;2023-11-19T10:19:03;100309.47;;;6.78;57.83
34124;BME280;13153;52.316;21.166;2023-11-19T10:21:32;100306.88;;;6.78;58.60
34124;BME280;13153;52.316;21.166;2023-11-19T10:23:58;100297.19;;;6.75;57.93
34124;BME280;13153;52.316;21.166;2023-11-19T10:26:26;100297.69;;;6.67;58.26
34124;BME280;13153;52.316;21.166;2023-11-19T10:28:52;100289.28;;;6.53;58.73
34124;BME280;13153;52.316;21.166;2023-11-19T10:31:20;100282.72;;;6.62;58.58
34124;BME280;13153;52.316;21.166;2023-11-19T10:33:51;100278.44;;;6.65;58.12
34124;BME280;13153;52.316;21.166;2023-11-19T10:36:17;100274.88;;;6.62;58.37
34124;BME280;13153;52.316;21.166;2023-11-19T10:38:56;100267.03;;;6.62;58.37
34124;BME280;13153;52.316;21.166;2023-11-19T10:41:30;100266.97;;;6.61;58.67
34124;BME280;13153;52.316;21.166;2023-11-19T10:43:57;100247.97;;;6.65;58.94
34124;BME280;13153;52.316;21.166;2023-11-19T10:46:40;100249.81;;;6.68;58.62
34124;BME280;13153;52.316;21.166;2023-11-19T10:49:08;100246.31;;;6.67;58.24
34124;BME280;13153;52.316;21.166;2023-11-19T10:51:34;100239.47;;;6.71;58.92
34124;BME280;13153;52.316;21.166;2023-11-19T10:54:05;100253.69;;;6.77;58.22
34124;BME280;13153;52.316;21.166;2023-11-19T10:56:32;100247.56;;;6.77;58.54
34124;BME280;13153;52.316;21.166;2023-11-19T10:59:02;100232.66;;;6.74;58.50
34124;BME280;13153;52.316;21.166;2023-11-19T11:01:40;100224.84;;;6.76;58.18
34124;BME280;13153;52.316;21.166;2023-11-19T11:04:14;100224.63;;;6.70;58.46
34124;BME280;13153;52.316;21.166;2023-11-19T11:06:41;100215.41;;;6.57;59.10
34124;BME280;13153;52.316;21.166;2023-11-19T11:09:09;100204.06;;;6.56;58.52
34124;BME280;13153;52.316;21.166;2023-11-19T11:11:40;100205.72;;;6.54;59.14
34124;BME280;13153;52.316;21.166;2023-11-19T11:14:12;100188.72;;;6.43;59.26
34124;BME280;13153;52.316;21.166;2023-11-19T11:16:43;100187.75;;;6.41;59.16
34124;BME280;13153;52.316;21.166;2023-11-19T11:19:12;100178.00;;;6.37;59.25
34124;BME280;13153;52.316;21.166;2023-11-19T11:21:42;100172.69;;;6.34;59.62
34124;BME280;13153;52.316;21.166;2023-11-19T11:24:48;100172.91;;;6.40;59.45
34124;BME280;13153;52.316;21.166;2023-11-19T11:30:25;100153.47;;;6.32;59.84
34124;BME280;13153;52.316;21.166;2023-11-19T11:36:21;100159.13;;;6.44;59.46
34124;BME280;13153;52.316;21.166;2023-11-19T11:38:49;100144.09;;;6.39;59.52
34124;BME280;13153;52.316;21.166;2023-11-19T11:41:23;100141.69;;;6.43;59.27
34124;BME280;13153;52.316;21.166;2023-11-19T11:43:54;100142.63;;;6.45;59.42
34124;BME280;13153;52.316;21.166;2023-11-19T11:49:10;100140.53;;;6.35;59.60
34124;BME280;13153;52.316;21.166;2023-11-19T11:54:25;100123.25;;;6.40;59.72
34124;BME280;13153;52.316;21.166;2023-11-19T11:57:13;100118.28;;;6.46;59.85
34124;BME280;13153;52.316;21.166;2023-11-19T11:59:45;100120.16;;;6.26;60.24
34124;BME280;13153;52.316;21.166;2023-11-19T12:02:20;100111.59;;;6.31;60.11
34124;BME280;13153;52.316;21.166;2023-11-19T12:04:52;100098.53;;;6.31;60.03
34124;BME280;13153;52.316;21.166;2023-11-19T12:07:23;100098.59;;;6.32;60.27
34124;BME280;13153;52.316;21.166;2023-11-19T12:10:09;100095.22;;;6.36;60.44
34124;BME280;13153;52.316;21.166;2023-11-19T12:12:39;100094.34;;;6.36;59.85
34124;BME280;13153;52.316;21.166;2023-11-19T12:15:10;100081.41;;;6.39;59.86
34124;BME280;13153;52.316;21.166;2023-11-19T12:17:41;100077.84;;;6.37;60.06
34124;BME280;13153;52.316;21.166;2023-11-19T12:20:10;100077.19;;;6.42;60.02
34124;BME280;13153;52.316;21.166;2023-11-19T12:22:38;100072.91;;;6.44;59.73
34124;BME280;13153;52.316;21.166;2023-11-19T12:25:09;100063.28;;;6.43;59.97
34124;BME280;13153;52.316;21.166;2023-11-19T12:27:40;100060.72;;;6.45;59.75
34124;BME280;13153;52.316;21.166;2023-11-19T12:30:07;100052.13;;;6.47;59.76
34124;BME280;13153;52.316;21.166;2023-11-19T12:32:45;100052.81;;;6.43;60.06
34124;BME280;13153;52.316;21.166;2023-11-19T12:35:12;100056.03;;;6.36;60.21
34124;BME280;13153;52.316;21.166;2023-11-19T12:37:49;100047.31;;;6.36;59.79
34124;BME280;13153;52.316;21.166;2023-11-19T12:40:22;100047.44;;;6.39;60.01
34124;BME280;13153;52.316;21.166;2023-11-19T12:42:53;100034.22;;;6.34;59.96
34124;BME280;13153;52.316;21.166;2023-11-19T12:45:19;100029.91;;;6.36;60.13
34124;BME280;13153;52.316;21.166;2023-11-19T12:47:47;100026.63;;;6.42;59.94
34124;BME280;13153;52.316;21.166;2023-11-19T12:50:16;100028.72;;;6.50;60.25
34124;BME280;13153;52.316;21.166;2023-11-19T12:52:56;100031.31;;;6.50;60.19
34124;BME280;13153;52.316;21.166;2023-11-19T12:55:30;100027.97;;;6.54;60.27
34124;BME280;13153;52.316;21.166;2023-11-19T12:57:56;100025.25;;;6.51;59.74
34124;BME280;13153;52.316;21.166;2023-11-19T13:00:25;100026.25;;;6.55;60.06
34124;BME280;13153;52.316;21.166;2023-11-19T13:02:53;100014.09;;;6.55;60.18
34124;BME280;13153;52.316;21.166;2023-11-19T13:05:30;100012.38;;;6.56;60.16